Time;durP1;ratioP1;P1;durP2;ratioP2;P2;SDS_P1;SDS_P2;PMS_P1;PMS_P2;Temp;Humidity;BMP_temperature;BMP_pressure;BME280_temperature;BME280_humidity;BME280_pressure;Samples;Min_cycle;Max_cycle;Signal;HPM_P1;HPM_P2
2023/09/11 00:00:44;;;;;;;10.23;6.90;;;;;;;;;;5015048;28;20026;-63
2023/09/11 00:03:30;;;;;;;10.70;6.70;;;;;;;;;;5013440;28;20034;-64
2023/09/11 00:06:15;;;;;;;9.40;6.28;;;;;;;;;;5015909;28;20029;-64
2023/09/11 00:09:01;;;;;;;12.48;6.82;;;;;;;;;;5014722;28;20040;-65
2023/09/11 00:11:46;;;;;;;9.40;6.00;;;;;;;;;;5014643;28;20100;-65
2023/09/11 00:14:32;;;;;;;11.73;6.75;;;;;;;;;;5013905;28;20116;-67
2023/09/11 00:17:17;;;;;;;12.90;7.07;;;;;;;;;;5014678;28;20026;-66
2023/09/11 00:20:10;;;;;;;9.68;5.72;;;;;;;;;;5014502;28;20033;-63
2023/09/11 00:22:55;;;;;;;10.60;6.75;;;;;;;;;;5015382;28;20034;-63
2023/09/11 00:25:41;;;;;;;10.63;6.07;;;;;;;;;;5014886;28;20026;-64
2023/09/11 00:28:26;;;;;;;11.90;6.75;;;;;;;;;;4999945;28;20038;-64
2023/09/11 00:31:12;;;;;;;8.50;5.97;;;;;;;;;;5013664;28;20033;-67
2023/09/11 00:33:57;;;;;;;10.20;6.13;;;;;;;;;;5013298;28;20048;-64
2023/09/11 00:36:43;;;;;;;10.38;6.15;;;;;;;;;;5013630;28;20053;-72
2023/09/11 00:39:29;;;;;;;10.10;6.10;;;;;;;;;;5014074;28;20033;-72
2023/09/11 00:42:14;;;;;;;9.80;6.50;;;;;;;;;;5013173;28;20043;-72
2023/09/11 00:45:00;;;;;;;10.63;5.68;;;;;;;;;;5014519;28;20132;-72
2023/09/11 00:47:46;;;;;;;8.98;5.78;;;;;;;;;;5013357;28;20030;-69
2023/09/11 00:50:32;;;;;;;9.20;5.60;;;;;;;;;;5015094;28;20029;-69
2023/09/11 00:53:19;;;;;;;12.93;5.75;;;;;;;;;;5014603;28;20030;-71
2023/09/11 00:56:04;;;;;;;8.48;5.47;;;;;;;;;;5014391;28;20556;-66
2023/09/11 00:58:50;;;;;;;8.85;5.85;;;;;;;;;;5013093;28;20061;-65
2023/09/11 01:01:36;;;;;;;10.15;7.03;;;;;;;;;;5014278;28;20036;-61
2023/09/11 01:04:24;;;;;;;8.70;5.82;;;;;;;;;;5013155;28;20038;-61
2023/09/11 01:07:10;;;;;;;11.80;7.15;;;;;;;;;;5014358;28;20491;-62
2023/09/11 01:09:57;;;;;;;10.07;6.68;;;;;;;;;;5014288;28;20037;-62
2023/09/11 01:12:42;;;;;;;9.35;7.10;;;;;;;;;;5014217;28;20025;-60
2023/09/11 01:15:30;;;;;;;11.02;6.15;;;;;;;;;;5012728;28;20026;-64
2023/09/11 01:18:36;;;;;;;17.73;7.88;;;;;;;;;;5014813;28;20033;-62
2023/09/11 01:21:40;;;;;;;11.23;6.45;;;;;;;;;;5010592;28;20041;-60
2023/09/11 01:24:37;;;;;;;11.10;6.57;;;;;;;;;;4998356;28;20042;-60
2023/09/11 01:27:42;;;;;;;9.50;6.60;;;;;;;;;;5012756;28;20037;-59
2023/09/11 01:30:28;;;;;;;9.70;5.68;;;;;;;;;;5013730;28;20386;-60
2023/09/11 01:33:14;;;;;;;9.98;6.40;;;;;;;;;;5014271;28;20087;-70
2023/09/11 01:35:59;;;;;;;9.20;6.30;;;;;;;;;;5013791;28;20077;-66
2023/09/11 01:38:45;;;;;;;8.23;5.40;;;;;;;;;;5013114;28;20088;-65
2023/09/11 01:41:34;;;;;;;9.63;6.05;;;;;;;;;;5014141;28;20037;-64
2023/09/11 01:44:26;;;;;;;10.00;6.20;;;;;;;;;;4998980;28;20038;-64
2023/09/11 01:47:13;;;;;;;12.00;5.82;;;;;;;;;;5013952;28;20034;-64
2023/09/11 01:50:00;;;;;;;9.73;6.10;;;;;;;;;;4999257;28;20030;-70
2023/09/11 01:52:48;;;;;;;21.15;7.25;;;;;;;;;;5013750;28;20025;-71
2023/09/11 01:55:35;;;;;;;11.80;6.63;;;;;;;;;;5013088;28;20381;-58
2023/09/11 01:58:20;;;;;;;12.27;6.72;;;;;;;;;;5013865;28;20117;-58
2023/09/11 02:01:06;;;;;;;9.07;5.80;;;;;;;;;;5011746;28;20389;-60
2023/09/11 02:03:51;;;;;;;10.75;5.80;;;;;;;;;;5012445;28;20034;-62
2023/09/11 02:06:37;;;;;;;9.55;6.28;;;;;;;;;;5012278;28;20080;-60
2023/09/11 02:09:22;;;;;;;13.02;6.47;;;;;;;;;;5012635;28;20034;-61
2023/09/11 02:12:08;;;;;;;11.45;6.22;;;;;;;;;;5012391;28;20127;-68
2023/09/11 02:14:54;;;;;;;11.25;7.10;;;;;;;;;;4998685;28;20488;-67
2023/09/11 02:17:39;;;;;;;7.78;5.80;;;;;;;;;;5013346;28;20049;-65
2023/09/11 02:20:25;;;;;;;9.10;6.45;;;;;;;;;;5012113;28;20040;-67
2023/09/11 02:23:10;;;;;;;10.05;6.55;;;;;;;;;;5012207;28;20067;-67
2023/09/11 02:25:56;;;;;;;11.23;6.18;;;;;;;;;;5012657;28;20104;-67
2023/09/11 02:28:41;;;;;;;9.07;6.05;;;;;;;;;;5016076;28;20034;-69
2023/09/11 02:31:27;;;;;;;11.73;7.32;;;;;;;;;;5015793;28;20108;-59
2023/09/11 02:34:12;;;;;;;9.98;6.18;;;;;;;;;;5016042;28;20492;-62
2023/09/11 02:36:58;;;;;;;11.70;7.18;;;;;;;;;;5015746;28;20034;-60
2023/09/11 02:39:43;;;;;;;15.88;5.70;;;;;;;;;;5015857;28;20030;-62
2023/09/11 02:42:29;;;;;;;9.68;6.22;;;;;;;;;;5015751;28;20033;-62
2023/09/11 02:45:14;;;;;;;8.32;5.78;;;;;;;;;;5015892;28;20022;-70
2023/09/11 02:48:00;;;;;;;10.20;5.90;;;;;;;;;;5015623;28;20392;-62
2023/09/11 02:50:47;;;;;;;8.25;5.45;;;;;;;;;;5001745;28;20060;-63
2023/09/11 02:53:32;;;;;;;11.70;5.80;;;;;;;;;;5017038;28;20076;-67
2023/09/11 02:56:18;;;;;;;8.85;5.85;;;;;;;;;;5015443;28;20030;-66
2023/09/11 02:59:04;;;;;;;10.45;6.80;;;;;;;;;;5015360;28;20033;-64
2023/09/11 03:01:50;;;;;;;10.90;6.57;;;;;;;;;;5016458;28;20088;-65
2023/09/11 03:04:35;;;;;;;10.98;7.03;;;;;;;;;;5015492;28;20091;-67
2023/09/11 03:07:21;;;;;;;10.30;5.63;;;;;;;;;;5015318;28;20030;-60
2023/09/11 03:10:06;;;;;;;10.02;6.57;;;;;;;;;;5015407;28;20026;-60
2023/09/11 03:12:52;;;;;;;9.90;5.95;;;;;;;;;;5015286;28;20120;-60
2023/09/11 03:15:37;;;;;;;9.98;5.78;;;;;;;;;;5015335;28;20041;-60
2023/09/11 03:18:23;;;;;;;9.43;5.65;;;;;;;;;;5015675;28;20515;-59
2023/09/11 03:21:09;;;;;;;8.95;5.80;;;;;;;;;;5001247;28;20032;-60
2023/09/11 03:23:54;;;;;;;10.70;6.70;;;;;;;;;;5015012;28;20030;-71
2023/09/11 03:26:40;;;;;;;10.10;5.75;;;;;;;;;;5015391;28;20026;-70
2023/09/11 03:29:26;;;;;;;9.13;5.57;;;;;;;;;;5015978;28;20065;-70
2023/09/11 03:32:11;;;;;;;11.10;6.70;;;;;;;;;;5014698;28;20065;-70
2023/09/11 03:34:57;;;;;;;8.85;6.03;;;;;;;;;;5014604;28;20060;-70
2023/09/11 03:37:42;;;;;;;9.88;5.75;;;;;;;;;;5015311;28;20108;-69
2023/09/11 03:40:31;;;;;;;12.23;5.60;;;;;;;;;;5001022;28;20473;-69
2023/09/11 03:43:16;;;;;;;9.73;6.23;;;;;;;;;;5014488;28;20038;-63
2023/09/11 03:46:02;;;;;;;9.02;6.13;;;;;;;;;;5001563;28;20033;-62
2023/09/11 03:48:47;;;;;;;10.65;6.57;;;;;;;;;;5014613;28;20448;-65
2023/09/11 03:51:33;;;;;;;10.75;6.40;;;;;;;;;;5014472;28;20060;-64
2023/09/11 03:54:18;;;;;;;12.20;6.20;;;;;;;;;;5014658;28;20037;-64
2023/09/11 03:57:04;;;;;;;8.77;5.90;;;;;;;;;;5014436;28;20466;-64
2023/09/11 03:59:49;;;;;;;7.93;5.47;;;;;;;;;;5014997;28;20057;-72
2023/09/11 04:02:35;;;;;;;8.07;6.13;;;;;;;;;;5014168;28;20057;-68
2023/09/11 04:05:20;;;;;;;13.02;6.65;;;;;;;;;;5014386;28;20404;-66
2023/09/11 04:08:06;;;;;;;11.57;6.55;;;;;;;;;;5014123;28;20029;-66
2023/09/11 04:10:51;;;;;;;11.90;6.72;;;;;;;;;;5014295;28;20072;-67
2023/09/11 04:13:37;;;;;;;13.57;6.88;;;;;;;;;;5014153;28;20080;-68
2023/09/11 04:16:23;;;;;;;8.73;6.60;;;;;;;;;;5014217;28;20073;-67
2023/09/11 04:19:08;;;;;;;9.35;6.30;;;;;;;;;;5013865;28;20108;-63
2023/09/11 04:21:54;;;;;;;9.07;6.22;;;;;;;;;;5015656;28;20034;-71
2023/09/11 04:24:39;;;;;;;10.18;6.07;;;;;;;;;;5013220;28;20034;-72
2023/09/11 04:27:25;;;;;;;10.27;6.78;;;;;;;;;;5013729;28;20429;-72
2023/09/11 04:30:11;;;;;;;12.25;7.30;;;;;;;;;;5013623;28;20041;-74
2023/09/11 04:32:56;;;;;;;13.27;6.75;;;;;;;;;;5015293;28;20026;-74
2023/09/11 04:35:42;;;;;;;8.80;7.00;;;;;;;;;;5013727;28;20109;-67
2023/09/11 04:38:28;;;;;;;10.07;6.43;;;;;;;;;;5013791;28;20400;-70
2023/09/11 04:41:14;;;;;;;9.80;6.10;;;;;;;;;;5014157;28;20555;-68
2023/09/11 04:43:59;;;;;;;12.82;7.30;;;;;;;;;;5014386;28;20055;-67
2023/09/11 04:46:45;;;;;;;11.02;6.38;;;;;;;;;;5014641;28;20180;-69
2023/09/11 04:49:30;;;;;;;9.77;6.07;;;;;;;;;;5013391;28;20034;-69
2023/09/11 04:52:16;;;;;;;13.20;5.63;;;;;;;;;;5013812;28;20034;-68
2023/09/11 04:55:02;;;;;;;11.30;7.30;;;;;;;;;;5013317;28;20026;-67
2023/09/11 04:57:47;;;;;;;11.15;6.25;;;;;;;;;;5014870;28;20362;-70
2023/09/11 05:00:33;;;;;;;8.90;5.97;;;;;;;;;;4999409;28;20021;-70
2023/09/11 05:03:19;;;;;;;9.77;7.05;;;;;;;;;;5013009;28;20038;-66
2023/09/11 05:06:04;;;;;;;10.55;7.03;;;;;;;;;;5013413;28;20088;-68
2023/09/11 05:08:51;;;;;;;11.65;6.95;;;;;;;;;;5012886;28;20469;-69
2023/09/11 05:11:36;;;;;;;9.35;7.07;;;;;;;;;;5014662;28;20026;-68
2023/09/11 05:14:22;;;;;;;9.70;6.63;;;;;;;;;;5013058;28;20076;-68
2023/09/11 05:17:07;;;;;;;9.07;6.75;;;;;;;;;;5014519;28;20120;-66
2023/09/11 05:19:53;;;;;;;11.43;6.97;;;;;;;;;;5012926;28;20057;-67
2023/09/11 05:22:40;;;;;;;13.77;7.10;;;;;;;;;;5012735;28;20155;-67
2023/09/11 05:25:25;;;;;;;17.42;7.35;;;;;;;;;;4999130;28;20033;-68
2023/09/11 05:28:11;;;;;;;11.07;6.78;;;;;;;;;;5012616;28;20084;-69
2023/09/11 05:30:57;;;;;;;10.15;6.63;;;;;;;;;;5012588;28;20432;-67
2023/09/11 05:33:42;;;;;;;14.73;8.05;;;;;;;;;;5013044;28;20034;-69
2023/09/11 05:36:28;;;;;;;10.82;7.07;;;;;;;;;;5012500;28;20030;-69
2023/09/11 05:39:13;;;;;;;14.82;7.78;;;;;;;;;;5012653;28;20445;-68
2023/09/11 05:41:59;;;;;;;10.40;6.55;;;;;;;;;;4999402;28;20029;-69
2023/09/11 05:44:44;;;;;;;10.75;6.78;;;;;;;;;;5012450;28;20555;-68
2023/09/11 05:47:30;;;;;;;12.02;7.80;;;;;;;;;;5013071;28;20061;-68
2023/09/11 05:50:17;;;;;;;8.80;6.60;;;;;;;;;;5013390;28;20033;-68
2023/09/11 05:53:03;;;;;;;12.00;7.53;;;;;;;;;;5013375;28;20113;-69
2023/09/11 05:55:48;;;;;;;15.05;7.82;;;;;;;;;;5013211;28;20029;-70
2023/09/11 05:58:34;;;;;;;13.60;7.88;;;;;;;;;;5012281;28;20112;-71
2023/09/11 06:01:19;;;;;;;11.25;7.65;;;;;;;;;;5012880;28;20033;-70
2023/09/11 06:04:05;;;;;;;11.75;8.65;;;;;;;;;;5016205;28;20469;-70
2023/09/11 06:06:51;;;;;;;14.50;8.00;;;;;;;;;;5016506;28;20473;-70
2023/09/11 06:09:36;;;;;;;11.77;7.47;;;;;;;;;;5017918;28;20392;-68
2023/09/11 06:12:23;;;;;;;10.40;7.72;;;;;;;;;;5016275;28;20030;-61
2023/09/11 06:15:08;;;;;;;10.00;6.93;;;;;;;;;;5017960;28;20037;-66
2023/09/11 06:17:54;;;;;;;10.95;7.05;;;;;;;;;;5016157;28;20076;-66
2023/09/11 06:20:40;;;;;;;14.18;7.10;;;;;;;;;;5003389;28;20022;-68
2023/09/11 06:23:25;;;;;;;12.32;8.40;;;;;;;;;;5017490;28;20469;-59
2023/09/11 06:26:11;;;;;;;15.25;8.35;;;;;;;;;;5015991;28;20026;-62
2023/09/11 06:28:56;;;;;;;15.75;7.32;;;;;;;;;;5017007;28;20108;-63
2023/09/11 06:31:42;;;;;;;9.77;6.50;;;;;;;;;;5016090;28;20129;-70
2023/09/11 06:34:29;;;;;;;10.93;6.90;;;;;;;;;;5015852;28;20065;-71
2023/09/11 06:37:15;;;;;;;10.80;7.13;;;;;;;;;;5017560;28;20029;-69
2023/09/11 06:40:00;;;;;;;15.93;7.50;;;;;;;;;;5015743;28;20030;-70
2023/09/11 06:42:46;;;;;;;9.15;6.85;;;;;;;;;;5016870;28;20041;-69
2023/09/11 06:45:33;;;;;;;11.52;7.00;;;;;;;;;;5015676;28;20021;-70
2023/09/11 06:48:18;;;;;;;10.73;6.07;;;;;;;;;;5016824;28;20029;-70
2023/09/11 06:51:04;;;;;;;12.45;7.00;;;;;;;;;;5017280;28;20033;-67
2023/09/11 06:53:49;;;;;;;11.25;7.05;;;;;;;;;;5017183;28;20066;-68
2023/09/11 06:56:36;;;;;;;10.48;7.25;;;;;;;;;;5015594;28;20034;-68
2023/09/11 06:59:21;;;;;;;8.95;6.60;;;;;;;;;;5016698;28;20034;-69
2023/09/11 07:02:07;;;;;;;11.65;6.40;;;;;;;;;;5015439;28;20366;-70
2023/09/11 07:04:52;;;;;;;13.45;6.60;;;;;;;;;;5017060;28;20041;-71
2023/09/11 07:07:38;;;;;;;14.13;6.47;;;;;;;;;;5015351;28;20489;-66
2023/09/11 07:10:24;;;;;;;9.32;6.15;;;;;;;;;;5014919;28;20033;-66
2023/09/11 07:13:10;;;;;;;12.25;7.07;;;;;;;;;;5015908;28;20026;-69
2023/09/11 07:15:55;;;;;;;10.45;7.78;;;;;;;;;;5015877;28;20041;-68
2023/09/11 07:18:41;;;;;;;10.40;7.22;;;;;;;;;;5015177;28;20084;-66
2023/09/11 07:21:26;;;;;;;13.00;7.22;;;;;;;;;;5014845;28;20473;-70
2023/09/11 07:24:12;;;;;;;10.80;6.43;;;;;;;;;;5014763;28;20128;-75
2023/09/11 07:26:57;;;;;;;10.88;6.45;;;;;;;;;;5014852;28;20117;-70
2023/09/11 07:29:43;;;;;;;18.05;7.38;;;;;;;;;;5016121;28;20384;-61
2023/09/11 07:32:30;;;;;;;11.38;6.97;;;;;;;;;;5014698;28;20069;-77
2023/09/11 07:35:15;;;;;;;11.55;6.72;;;;;;;;;;5018453;28;20034;-77
2023/09/11 07:38:01;;;;;;;10.82;6.15;;;;;;;;;;5014473;28;20036;-78
2023/09/11 07:40:46;;;;;;;10.77;6.38;;;;;;;;;;5015425;28;20032;-71
2023/09/11 07:43:32;;;;;;;9.63;6.15;;;;;;;;;;5014523;28;20040;-78
2023/09/11 07:46:18;;;;;;;10.18;6.60;;;;;;;;;;5014559;28;20026;-78
2023/09/11 07:49:04;;;;;;;9.60;6.30;;;;;;;;;;5001412;28;20026;-78
2023/09/11 07:51:49;;;;;;;9.18;5.63;;;;;;;;;;5015143;28;20469;-78
2023/09/11 07:54:35;;;;;;;8.95;5.50;;;;;;;;;;5014353;28;20034;-78
2023/09/11 07:57:20;;;;;;;10.43;5.55;;;;;;;;;;5014300;28;20108;-78
2023/09/11 08:00:07;;;;;;;7.60;5.53;;;;;;;;;;5014435;28;20117;-64
2023/09/11 08:02:53;;;;;;;9.40;5.88;;;;;;;;;;5018675;28;20037;-78
2023/09/11 08:05:38;;;;;;;12.80;5.68;;;;;;;;;;5017151;28;20037;-76
2023/09/11 08:08:24;;;;;;;10.05;5.70;;;;;;;;;;5015208;28;20038;-76
2023/09/11 08:11:11;;;;;;;10.07;6.13;;;;;;;;;;5014791;28;20036;-77
2023/09/11 08:13:57;;;;;;;9.40;5.07;;;;;;;;;;5016214;28;20032;-77
2023/09/11 08:16:42;;;;;;;10.73;5.70;;;;;;;;;;5015494;28;20030;-69
2023/09/11 08:19:28;;;;;;;10.43;5.40;;;;;;;;;;5015239;28;20052;-78
2023/09/11 08:22:14;;;;;;;10.60;5.30;;;;;;;;;;5014151;28;20038;-79
2023/09/11 08:24:59;;;;;;;12.13;6.07;;;;;;;;;;5013135;28;20381;-78
2023/09/11 08:27:45;;;;;;;12.30;6.55;;;;;;;;;;5014339;28;20257;-79
2023/09/11 08:30:31;;;;;;;12.45;5.80;;;;;;;;;;5014938;28;20109;-79
2023/09/11 08:33:16;;;;;;;13.55;6.35;;;;;;;;;;4999944;28;20026;-79
2023/09/11 08:36:02;;;;;;;10.10;5.72;;;;;;;;;;5014991;28;20033;-72
2023/09/11 08:38:48;;;;;;;11.45;5.35;;;;;;;;;;5024126;22;20046;-65
2023/09/11 08:41:34;;;;;;;10.90;5.63;;;;;;;;;;4995413;28;20096;-74
2023/09/11 08:44:20;;;;;;;9.35;5.82;;;;;;;;;;4995440;28;20112;-68
2023/09/11 08:47:06;;;;;;;11.63;5.63;;;;;;;;;;4996071;28;20034;-66
2023/09/11 08:49:54;;;;;;;13.40;7.03;;;;;;;;;;4984379;28;20056;-70
2023/09/11 08:52:40;;;;;;;12.40;6.05;;;;;;;;;;5011725;28;20035;-69
2023/09/11 08:55:25;;;;;;;10.98;6.20;;;;;;;;;;5021831;28;20334;-63
2023/09/11 08:58:11;;;;;;;9.98;5.63;;;;;;;;;;5003061;28;20512;-68
2023/09/11 09:00:57;;;;;;;12.82;5.63;;;;;;;;;;4996753;28;20377;-64
2023/09/11 09:03:43;;;;;;;9.48;4.97;;;;;;;;;;5014774;28;20037;-63
2023/09/11 09:06:28;;;;;;;12.18;5.60;;;;;;;;;;5014066;28;20061;-66
2023/09/11 09:09:13;;;;;;;8.68;5.53;;;;;;;;;;5012711;28;20025;-65
2023/09/11 09:11:59;;;;;;;9.85;5.57;;;;;;;;;;5009303;28;20498;-66
2023/09/11 09:14:46;;;;;;;9.43;5.68;;;;;;;;;;5001220;28;20045;-65
2023/09/11 09:17:31;;;;;;;10.57;5.22;;;;;;;;;;4992260;28;20038;-66
2023/09/11 09:20:17;;;;;;;11.18;5.43;;;;;;;;;;5011230;28;20041;-65
2023/09/11 09:23:02;;;;;;;12.13;6.25;;;;;;;;;;5003733;28;20029;-67
2023/09/11 09:25:48;;;;;;;11.13;5.63;;;;;;;;;;4999035;28;20069;-64
2023/09/11 09:28:33;;;;;;;8.50;5.13;;;;;;;;;;4993451;28;20053;-64
2023/09/11 09:31:23;;;;;;;11.93;6.47;;;;;;;;;;4994781;28;20069;-66
2023/09/11 09:34:09;;;;;;;8.65;5.80;;;;;;;;;;4995376;28;20105;-67
2023/09/11 09:36:55;;;;;;;7.68;4.75;;;;;;;;;;4988193;28;20393;-64
2023/09/11 09:39:41;;;;;;;9.38;6.20;;;;;;;;;;4982372;28;20038;-65
2023/09/11 09:42:37;;;;;;;8.93;5.35;;;;;;;;;;4987841;28;20034;-65
2023/09/11 09:45:29;;;;;;;12.50;6.22;;;;;;;;;;4979228;28;20143;-67
2023/09/11 09:48:14;;;;;;;9.70;5.25;;;;;;;;;;4973652;28;20034;-68
2023/09/11 09:51:01;;;;;;;8.55;5.47;;;;;;;;;;4985009;28;20030;-70
2023/09/11 09:53:48;;;;;;;9.13;5.50;;;;;;;;;;4976871;28;20045;-67
2023/09/11 09:56:33;;;;;;;12.63;6.57;;;;;;;;;;4961327;28;20133;-68
2023/09/11 09:59:22;;;;;;;9.85;5.57;;;;;;;;;;4985614;28;20018;-69
2023/09/11 10:02:09;;;;;;;9.85;5.93;;;;;;;;;;4972865;28;20030;-71
2023/09/11 10:04:55;;;;;;;14.05;6.72;;;;;;;;;;4974584;28;20104;-71
2023/09/11 10:07:44;;;;;;;11.32;5.82;;;;;;;;;;4985526;28;20034;-66
2023/09/11 10:10:30;;;;;;;11.75;6.43;;;;;;;;;;4960220;28;20042;-70
2023/09/11 10:13:16;;;;;;;9.07;5.95;;;;;;;;;;4977002;28;20035;-69
2023/09/11 10:16:02;;;;;;;10.90;5.82;;;;;;;;;;4983328;28;20073;-69
2023/09/11 10:18:48;;;;;;;12.10;6.70;;;;;;;;;;4974551;28;20213;-72
2023/09/11 10:21:34;;;;;;;9.52;6.45;;;;;;;;;;4976583;28;20056;-70
2023/09/11 10:24:19;;;;;;;11.98;5.68;;;;;;;;;;4985968;28;20120;-71
2023/09/11 10:27:06;;;;;;;12.40;6.32;;;;;;;;;;4979966;28;20462;-69
2023/09/11 10:29:59;;;;;;;7.03;4.97;;;;;;;;;;4978792;28;20038;-67
2023/09/11 10:32:47;;;;;;;13.45;6.97;;;;;;;;;;4976399;28;20038;-67
2023/09/11 10:35:32;;;;;;;;;;;;;;;;;;4973805;28;20048;-68
2023/09/11 10:38:18;;;;;;;9.77;6.30;;;;;;;;;;4973156;28;19914;-68
2023/09/11 10:41:04;;;;;;;12.70;6.05;;;;;;;;;;4978825;28;20018;-65
2023/09/11 10:43:50;;;;;;;10.35;6.38;;;;;;;;;;4974298;28;20551;-65
2023/09/11 10:49:17;;;;;;;12.43;5.78;;;;;;;;;;4970260;28;20492;-69
2023/09/11 10:52:03;;;;;;;14.10;6.32;;;;;;;;;;4984387;28;20026;-68
2023/09/11 10:54:48;;;;;;;10.20;6.35;;;;;;;;;;4977387;28;20026;-73
2023/09/11 10:57:33;;;;;;;11.48;7.10;;;;;;;;;;4985421;28;20042;-70
2023/09/11 11:00:20;;;;;;;11.32;6.78;;;;;;;;;;5000901;28;20038;-68
2023/09/11 11:03:06;;;;;;;11.73;6.45;;;;;;;;;;4995565;28;20837;-73
2023/09/11 11:05:51;;;;;;;11.18;6.25;;;;;;;;;;4988647;28;20041;-70
2023/09/11 11:08:36;;;;;;;9.85;6.20;;;;;;;;;;4988959;28;20037;-71
2023/09/11 11:11:26;;;;;;;9.60;6.47;;;;;;;;;;4984944;28;20268;-71
2023/09/11 11:14:14;;;;;;;11.73;6.57;;;;;;;;;;4975029;28;20247;-72
2023/09/11 11:17:00;;;;;;;11.25;6.45;;;;;;;;;;4988010;28;20043;-70
2023/09/11 11:20:00;;;;;;;8.55;6.03;;;;;;;;;;4990438;28;20614;-71
2023/09/11 11:22:45;;;;;;;17.52;6.50;;;;;;;;;;4976361;28;20061;-73
2023/09/11 11:25:30;;;;;;;14.52;5.97;;;;;;;;;;4986069;28;20398;-67
2023/09/11 11:28:16;;;;;;;9.93;6.25;;;;;;;;;;4984405;28;20039;-67
2023/09/11 11:31:01;;;;;;;10.98;5.70;;;;;;;;;;4986580;28;20095;-64
2023/09/11 11:33:48;;;;;;;13.68;6.47;;;;;;;;;;4986461;28;20034;-66
2023/09/11 11:36:34;;;;;;;10.70;6.10;;;;;;;;;;4987288;28;20030;-68
2023/09/11 11:39:20;;;;;;;11.57;5.93;;;;;;;;;;4985956;28;20039;-69
2023/09/11 11:42:06;;;;;;;11.25;5.75;;;;;;;;;;4986179;28;20484;-69
2023/09/11 11:44:52;;;;;;;9.73;5.47;;;;;;;;;;4984294;28;20622;-70
2023/09/11 11:47:37;;;;;;;11.30;5.40;;;;;;;;;;4982476;28;20090;-72
2023/09/11 11:50:23;;;;;;;12.27;5.70;;;;;;;;;;4989896;28;20058;-70
2023/09/11 11:53:13;;;;;;;10.35;6.55;;;;;;;;;;4993689;28;20039;-69
2023/09/11 11:55:59;;;;;;;8.55;4.75;;;;;;;;;;4991425;28;20034;-68
2023/09/11 11:58:44;;;;;;;11.95;5.70;;;;;;;;;;4987386;28;20049;-68
2023/09/11 12:01:34;;;;;;;12.02;5.32;;;;;;;;;;4995392;28;20529;-71
2023/09/11 12:04:20;;;;;;;8.35;4.43;;;;;;;;;;4995983;28;20458;-71
2023/09/11 12:07:08;;;;;;;10.93;4.88;;;;;;;;;;4999809;28;20524;-71
2023/09/11 12:09:53;;;;;;;11.48;5.45;;;;;;;;;;4987847;28;20043;-71
2023/09/11 12:12:41;;;;;;;9.65;4.95;;;;;;;;;;4997771;28;20041;-71
2023/09/11 12:15:27;;;;;;;16.00;5.05;;;;;;;;;;4998274;28;20100;-77
2023/09/11 12:18:13;;;;;;;10.35;5.00;;;;;;;;;;5003635;28;20046;-69
2023/09/11 12:20:59;;;;;;;9.82;5.88;;;;;;;;;;4988988;28;20109;-69
2023/09/11 12:23:45;;;;;;;16.00;6.80;;;;;;;;;;4968263;28;20069;-70
2023/09/11 12:26:31;;;;;;;13.73;6.15;;;;;;;;;;4991074;28;20085;-70
2023/09/11 12:29:16;;;;;;;9.52;5.32;;;;;;;;;;5001904;28;20073;-69
2023/09/11 12:32:01;;;;;;;11.27;5.00;;;;;;;;;;5003538;28;20044;-69
2023/09/11 12:34:46;;;;;;;12.77;5.55;;;;;;;;;;4989741;28;20042;-70
2023/09/11 12:37:32;;;;;;;10.15;5.13;;;;;;;;;;5000518;28;20394;-70
2023/09/11 12:40:17;;;;;;;8.68;4.47;;;;;;;;;;4987112;28;20030;-69
2023/09/11 12:43:03;;;;;;;11.98;5.00;;;;;;;;;;4986723;28;20589;-67
2023/09/11 12:45:48;;;;;;;10.95;5.15;;;;;;;;;;4992318;28;20171;-67
2023/09/11 12:48:39;;;;;;;10.30;5.43;;;;;;;;;;4978553;28;20457;-69
2023/09/11 12:51:24;;;;;;;12.60;5.20;;;;;;;;;;5002793;28;20046;-67
2023/09/11 12:54:10;;;;;;;15.10;5.22;;;;;;;;;;4994416;28;20532;-68
2023/09/11 12:56:55;;;;;;;11.02;4.47;;;;;;;;;;5003018;28;20045;-79
2023/09/11 12:59:40;;;;;;;14.15;5.40;;;;;;;;;;5003462;28;20034;-78
2023/09/11 13:03:08;;;;;;;;;;;;;;;;;;;;;
2023/09/11 13:05:54;;;;;;;11.02;5.55;;;;;;;;;;4986589;28;20406;-77
2023/09/11 13:08:40;;;;;;;13.80;5.85;;;;;;;;;;4984748;28;20035;-78
2023/09/11 13:11:25;;;;;;;11.15;4.82;;;;;;;;;;4992841;28;20038;-75
2023/09/11 13:14:10;;;;;;;8.10;4.85;;;;;;;;;;4995333;28;20496;-76
2023/09/11 13:16:55;;;;;;;9.93;5.15;;;;;;;;;;4995415;28;20759;-75
2023/09/11 13:19:41;;;;;;;11.55;5.93;;;;;;;;;;4999883;28;20062;-79
2023/09/11 13:22:26;;;;;;;13.25;5.50;;;;;;;;;;4993403;28;20058;-78
2023/09/11 13:25:12;;;;;;;10.63;4.57;;;;;;;;;;4990024;28;20038;-78
2023/09/11 13:27:58;;;;;;;14.70;6.28;;;;;;;;;;5001801;28;20029;-77
2023/09/11 13:30:43;;;;;;;9.05;5.50;;;;;;;;;;4987612;28;20485;-70
2023/09/11 13:33:28;;;;;;;9.88;5.07;;;;;;;;;;4990715;28;20386;-75
2023/09/11 13:36:13;;;;;;;8.10;4.72;;;;;;;;;;5000393;28;20029;-78
2023/09/11 13:38:58;;;;;;;10.80;5.35;;;;;;;;;;4998304;28;20030;-77
2023/09/11 13:41:44;;;;;;;16.05;5.32;;;;;;;;;;4992309;28;20034;-77
2023/09/11 13:44:29;;;;;;;16.98;6.20;;;;;;;;;;4999238;28;20497;-78
2023/09/11 13:47:14;;;;;;;13.02;5.45;;;;;;;;;;4993241;28;20057;-75
2023/09/11 13:50:00;;;;;;;14.43;6.07;;;;;;;;;;5000401;28;20123;-71
2023/09/11 13:52:45;;;;;;;11.80;5.28;;;;;;;;;;4998338;28;20038;-79
2023/09/11 13:55:31;;;;;;;9.73;5.65;;;;;;;;;;5001907;28;20034;-79
2023/09/11 13:58:16;;;;;;;13.77;6.00;;;;;;;;;;4982778;28;20035;-79
2023/09/11 14:01:02;;;;;;;11.18;5.35;;;;;;;;;;4979434;28;20038;-78
2023/09/11 14:03:47;;;;;;;11.23;5.10;;;;;;;;;;5001173;28;20026;-77
2023/09/11 14:06:32;;;;;;;11.00;6.30;;;;;;;;;;4980243;28;20386;-68
2023/09/11 14:09:18;;;;;;;10.10;5.10;;;;;;;;;;4991718;28;20045;-77
2023/09/11 14:12:04;;;;;;;17.17;5.80;;;;;;;;;;4977006;28;20377;-77
2023/09/11 14:14:49;;;;;;;12.13;5.75;;;;;;;;;;4999108;28;20053;-80
2023/09/11 14:17:34;;;;;;;11.10;4.28;;;;;;;;;;4998718;28;20045;-78
2023/09/11 14:20:19;;;;;;;9.80;4.82;;;;;;;;;;4994878;28;20034;-77
2023/09/11 14:23:05;;;;;;;11.32;6.90;;;;;;;;;;4992954;28;20019;-77
2023/09/11 14:25:50;;;;;;;7.03;4.55;;;;;;;;;;5002546;28;20026;-79
2023/09/11 14:28:35;;;;;;;11.10;5.57;;;;;;;;;;4996884;28;20535;-69
2023/09/11 14:31:20;;;;;;;12.68;5.60;;;;;;;;;;4994664;28;20431;-69
2023/09/11 14:34:06;;;;;;;12.95;6.10;;;;;;;;;;5005380;28;20418;-70
2023/09/11 14:36:51;;;;;;;13.25;6.55;;;;;;;;;;5003268;28;20065;-69
2023/09/11 14:39:36;;;;;;;10.90;5.18;;;;;;;;;;4973644;28;20061;-69
2023/09/11 14:42:21;;;;;;;7.32;4.47;;;;;;;;;;4980910;28;20030;-69
2023/09/11 14:45:07;;;;;;;7.25;5.00;;;;;;;;;;4980400;28;20033;-68
2023/09/11 14:47:53;;;;;;;11.25;4.80;;;;;;;;;;5005026;28;20121;-70
2023/09/11 14:50:38;;;;;;;16.13;5.97;;;;;;;;;;4986167;28;20047;-70
2023/09/11 14:53:36;;;;;;;12.25;4.80;;;;;;;;;;4991718;28;20039;-69
2023/09/11 14:56:22;;;;;;;13.50;5.22;;;;;;;;;;5005104;28;20127;-71
2023/09/11 14:59:07;;;;;;;10.30;5.53;;;;;;;;;;5004871;28;20038;-70
2023/09/11 15:01:53;;;;;;;8.27;5.15;;;;;;;;;;4989951;28;20280;-69
2023/09/11 15:04:38;;;;;;;12.50;6.70;;;;;;;;;;5003440;28;20042;-72
2023/09/11 15:07:23;;;;;;;12.10;4.85;;;;;;;;;;5004014;28;20379;-71
2023/09/11 15:10:08;;;;;;;8.43;5.35;;;;;;;;;;5001266;28;20061;-71
2023/09/11 15:12:54;;;;;;;13.23;6.13;;;;;;;;;;4994790;28;20026;-72
2023/09/11 15:15:42;;;;;;;10.77;4.72;;;;;;;;;;4998673;28;20081;-71
2023/09/11 15:18:27;;;;;;;12.23;6.23;;;;;;;;;;4972417;28;20047;-71
2023/09/11 15:21:14;;;;;;;9.77;5.63;;;;;;;;;;4978603;28;20369;-69
2023/09/11 15:24:02;;;;;;;12.95;5.13;;;;;;;;;;4990094;28;20042;-77
2023/09/11 15:26:47;;;;;;;11.27;5.30;;;;;;;;;;4984536;28;20090;-78
2023/09/11 15:29:33;;;;;;;12.52;7.50;;;;;;;;;;5000268;28;20105;-77
2023/09/11 15:32:21;;;;;;;10.88;5.03;;;;;;;;;;4979182;28;20142;-63
2023/09/11 15:35:07;;;;;;;7.80;4.43;;;;;;;;;;4980877;28;20585;-63
2023/09/11 15:37:52;;;;;;;12.45;5.63;;;;;;;;;;4987974;28;20038;-62
2023/09/11 15:40:37;;;;;;;9.57;4.68;;;;;;;;;;4988668;28;20042;-65
2023/09/11 15:43:22;;;;;;;12.32;5.13;;;;;;;;;;4981402;28;20494;-61
2023/09/11 15:46:08;;;;;;;9.98;5.13;;;;;;;;;;4982531;28;20034;-62
2023/09/11 15:48:54;;;;;;;10.40;5.68;;;;;;;;;;4969733;28;20088;-62
2023/09/11 15:51:39;;;;;;;10.30;5.85;;;;;;;;;;4967695;28;20051;-65
2023/09/11 15:54:24;;;;;;;11.63;5.85;;;;;;;;;;4978157;28;20041;-65
2023/09/11 15:57:09;;;;;;;14.82;6.40;;;;;;;;;;4969326;28;20026;-71
2023/09/11 15:59:55;;;;;;;19.05;6.25;;;;;;;;;;4987323;28;20138;-65
2023/09/11 16:02:40;;;;;;;9.38;6.43;;;;;;;;;;4980622;28;20061;-67
2023/09/11 16:05:26;;;;;;;11.05;6.40;;;;;;;;;;4985881;28;20066;-65
2023/09/11 16:08:12;;;;;;;10.75;7.10;;;;;;;;;;4988490;28;20045;-69
2023/09/11 16:10:57;;;;;;;11.07;5.95;;;;;;;;;;4971409;28;20035;-67
2023/09/11 16:13:43;;;;;;;10.00;5.13;;;;;;;;;;4982275;28;20456;-66
2023/09/11 16:16:29;;;;;;;13.73;6.10;;;;;;;;;;4966422;28;20074;-67
2023/09/11 16:19:15;;;;;;;9.85;5.85;;;;;;;;;;5001263;22;20050;-76
2023/09/11 16:22:00;;;;;;;10.38;5.45;;;;;;;;;;4996442;28;20070;-76
2023/09/11 16:24:45;;;;;;;13.60;4.93;;;;;;;;;;4967848;28;20039;-75
2023/09/11 16:27:30;;;;;;;11.00;6.78;;;;;;;;;;4992701;28;20046;-77
2023/09/11 16:30:16;;;;;;;13.82;6.03;;;;;;;;;;4995969;28;20129;-76